Scroll down
FLIGHT INFORMATION
American Airlines

AAL1041

At Arrival Gate

KORD
 KPHX
DATE: 2021-02-20
GATE: K17
GATE DEPARTURE: 14:47
TAKEOFF: 15:00
DATE: 2021-02-20
GATE:  -
LANDING: 18:28
GATE ARRIVAL: 18:36
FLIGHT DATA
Crew: 
Speed: 
517 kts
Altitude: 
40,009 ft
Stage Length: 
1,249.1 nm
Block Time: 
3.7 hrs
Flight Time: 
3.5 hrs
Fuel Used: 
49,105 lb
Cleared Route: KORD PEKUE PIPPN ELYNA BACNN STJ SLN GCK CIM ZUN DOJOE SLIDR TINIZ PAYSO EAGUL HOMRR BOHTX GEENO QUENY HINEY OBASE JAMIL RW08
TRACK DATA
50,000 ft 1,000 kts
AIRCRAFT INFO AND CUMULATIVE STATS
Aircraft Type: 
B772
Registration: 
SELCAL: 
ABHK
MSN/LN: 
30257 / 315
Operator: 
Total Flights: 
11
Total Block Time: 
37.5 hrs
Total Flight Time: 
34.4 hrs
Total Fuel Used: 
501,342 lb
DATALINK LOG | Newest first | Current as of: 2022-11-30 10:49:34
LABEL SEQUENCE CONTENT Dn/Up
QD381118:36 16.2▼ Dn
QC300418:28▼ Dn
UM2121361KPHX ATIS - PHX ATIS INFO I 1751Z. 13006KT 10SM FEW200 18/M07 A3002 (THREE ZERO ZERO TWO). SIMUL APCHS IN USE. EXPECT VISUAL APCH RWY 8, VISUAL APCH RWY 7R, VISUAL APCH RWY 7L. DEPARTING RWY 7L. NOTAMS... PXR OTS. MULT CRANES INVOF ARPT. BIRD ACTIVITY INVOF ARPT. READBACK HOLD SHORT INSTRUCTIONS. ...ADVS YOU HAVE INFO I.▲ Up
DM791351 ATIS KPHX A▼ Dn
UM2124737KPHX ATIS - PHX ATIS INFO H 1651Z. 13008KT 10SM FEW250 15/M06 A3002 (THREE ZERO ZERO TWO). SIMUL APCHS IN USE. EXPECT VISUAL APCH RWY 8, VISUAL APCH RWY 7R, VISUAL APCH RWY 7L. DEPARTING RWY 7L. NOTAMS... PXR OTS. MULT CRANES INVOF ARPT. BIRD ACTIVITY INVOF ARPT. READBACK HOLD SHORT INSTRUCTIONS. ...ADVS YOU HAVE INFO H.▲ Up
DM794727 ATIS KPHX A▼ Dn
2U4639KPHX 201651Z 14008KT 10SM FEW250 15/M06 A3002 RMK AO2 SLP158 T01501061 $▲ Up
2S4725KPHX▼ Dn
QB014615:00▼ Dn
QA493414:47 65.5▼ Dn
A33933CLEARED TO KPHX VIA PEKUE PIPPN ELYNA BACNN J18 SLN J18 GCK J96 CIM ZUN EAGUL6. SQUAWK 2615.▲ Up
5U3836KPHX 201822Z 12006KT 10SM SKC 09/M06 A3003▲ Up
2U3831KORD 201351Z 25003KT 5SM BR CLR M14/M14 A3034 RMK AO2 SLP290 T11391144▲ Up
5S3931KPHX▼ Dn
2S3931KORD▼ Dn
Q03823[LINK ACK]▲ Up
Q03823[LINK TEST]▼ Dn


AIRCRAFT HISTORY
FLIGHT DATE FLIGHT NO. ORIGIN DESTINATION CLEARED ROUTE BLOCK TIME FLIGHT TIME FUEL USED PILOT
2022-05-24AAL5890CYLW KABQ CYLW ULEKA BOXAR GABER TABVO YDC GEG DOXIE LKT MTU ROSEI SSKYE FORUN LOWBO JOKLO ITUNE MUSCC DWNLD CMSTR RW032.5 hrs2.3 hrs34,098 lbPete L.
2022-02-27AAL5180KMCO CYLW KMCO GUANO CSG VUZ GETME BEATS FLORS DITZL VISQA CRELL FAM OVR ONL RAP BIL GTF DORSE YXC TAGBA OMPIM NORIP LENUR UKVOD NORIP RW165.5 hrs5.2 hrs76,021 lbPete L.
2021-09-05AAL9905TJSJ KMCO TJSJ SAPPO CHYLE JSTIN CHASO RUTOC SUMAC PEACH CANVI OCTAL KMCO2.8 hrs2.5 hrs36,815 lbZsolt Szivak
2021-03-28AAL1613KMIA TJSJ KMIA SKIPS BITAC HAGIT CALTO ZIBER SAYER BEANO TJSJ2.4 hrs2.1 hrs31,373 lbZsolt Szivak
2021-03-26AAL916SKBO KMIA SKBO BUV EJA TESIR MGN SUBLO UGREB KILER BEREX SIA EPSIM ALTIB ZEUSS FOWEE KMIA3.7 hrs3.3 hrs47,616 lbZsolt Szivak
2021-03-21AAL913KMIA SKBO KMIA JADAK GRITT CULBY SHULA EONNS ELLEE URSUS TASNO NIBEO ENARI SIA BEREX KILER TODUK AKPEK RNG ISVAT FLOTE MQU BO884 NOR02 NOR03 NOR04 NOR05 PULDI AMVES RW13L3.4 hrs3.2 hrs46,033 lbDan Downs
2021-03-20AAL6KORD KMIA KORD CMSKY CARYN CYBIL PXV BNA LGC GOONS BULZI SNAPY NICKI BITNY ENDEW JUULI KMIA2.8 hrs2.4 hrs34,576 lbJames W.
2021-02-20AAL615KPHX KORD KPHX ABQ ACH LBL KK54E IRK BENKY NEWRK AHSTN PETAH JORJO MONKZ TONIE HAZIL RW28C2.8 hrs2.5 hrs36,905 lbGeorge
2021-02-20AAL1041KORD KPHX KORD PEKUE PIPPN ELYNA BACNN STJ SLN GCK CIM ZUN DOJOE SLIDR TINIZ PAYSO EAGUL HOMRR BOHTX GEENO QUENY HINEY OBASE JAMIL RW083.7 hrs3.5 hrs49,105 lbGeorge
2021-02-16AAL2775KLAS KORD KLAS RBELL ROPPR CEASR HITME COWBY MOSBI GUP CIM GCK SLN AGENT KIDER IRK LOAMY KEOKK DRAMS RYELY BFORD BYLAW BENKY NEWRK AHSTN PETAH JORJO MONKZ TONIE HAZIL RW28C3.3 hrs3 hrs44,480 lbDan Downs
2021-02-11AAL211KCLT KLAS KCLT WAYDS LONEE JOJJO WLLGO BENBY TIELR CUBIM IBATE IIU VLA STJ TKO GLD BRK DVC DICEE SINNN KLAS4.6 hrs4.4 hrs64,320 lbMichael Roth